WetterOnline ( https://www.wetteronline.de )

Wetter aktuell Potsdam

Aktuelles Wetter: Potsdam (100m)

6-stündlich | Neueste Meldungen
Ortszeit Temperatur Wetter
Fr, 12.04. 8:00 13.2° C bedeckt
Fr, 12.04. 2:00 13.1° C bedeckt
Do, 11.04. 20:00 14.1° C leicht bewölkt
Do, 11.04. 14:00 16.3° C bedeckt
Do, 11.04. 8:00 6.9° C leicht bewölkt
Do, 11.04. 2:00 7.3° C wolkenlos
Mi, 10.04. 20:00 12.2° C bedeckt
Mi, 10.04. 14:00 14.3° C bewölkt
Ortszeit Temperatur Wetter
Fr, 12.04. 12:30 16.6° C bedeckt
Fr, 12.04. 12:20 16.6° C bedeckt
Fr, 12.04. 12:10 16.7° C bedeckt
Fr, 12.04. 12:00 16.4° C bedeckt
Fr, 12.04. 11:50 16.4° C bedeckt
Fr, 12.04. 11:40 16.4° C bedeckt
Fr, 12.04. 11:30 16.3° C bedeckt
Fr, 12.04. 11:00 15.9° C bedeckt
Fr, 12.04. 10:30 15.3° C bedeckt
Fr, 12.04. 10:00 14.9° C bedeckt
Fr, 12.04. 9:30 14.4° C bedeckt
Ortszeit Relative Feuchte Sichtweite
Fr, 12.04. 8:00 80% 45 km
Fr, 12.04. 2:00 76% 60 km
Do, 11.04. 20:00 59% 65 km
Do, 11.04. 14:00 41% 65 km
Do, 11.04. 8:00 80% 35 km
Do, 11.04. 2:00 80% 50 km
Mi, 10.04. 20:00 61% 65 km
Mi, 10.04. 14:00 49% >70 km
Ortszeit Relative Feuchte Sichtweite
Fr, 12.04. 12:30 66% 50 km
Fr, 12.04. 12:20 66% -
Fr, 12.04. 12:10 65% -
Fr, 12.04. 12:00 65% 35 km
Fr, 12.04. 11:50 65% -
Fr, 12.04. 11:40 66% -
Fr, 12.04. 11:30 66% 30 km
Fr, 12.04. 11:00 69% 35 km
Fr, 12.04. 10:30 71% 30 km
Fr, 12.04. 10:00 73% 30 km
Fr, 12.04. 9:30 74% 40 km
Ortszeit Niederschlagsmenge Niederschlagsart
Fr, 12.04. 8:00 0.0 l/m2 in 12 Std. -
Fr, 12.04. 2:00 0.0 l/m2 in 6 Std. -
Do, 11.04. 20:00 0.0 l/m2 in 12 Std. -
Do, 11.04. 14:00 0.0 l/m2 in 6 Std. -
Do, 11.04. 8:00 0.0 l/m2 in 12 Std. -
Do, 11.04. 2:00 0.0 l/m2 in 6 Std. -
Mi, 10.04. 20:00 0.0 l/m2 in 12 Std. -
Mi, 10.04. 14:00 0.0 l/m2 in 6 Std. -
Ortszeit Niederschlagsmenge Niederschlagsart
Fr, 12.04. 12:30 0.0 l/m2 in 30 Min -
Fr, 12.04. 12:20 keine Meldung -
Fr, 12.04. 12:10 keine Meldung -
Fr, 12.04. 12:00 0.0 l/m2 in 1 Std. -
Fr, 12.04. 11:50 keine Meldung -
Fr, 12.04. 11:40 keine Meldung -
Fr, 12.04. 11:30 0.0 l/m2 in 30 Min -
Fr, 12.04. 11:00 0.0 l/m2 in 1 Std. -
Fr, 12.04. 10:30 0.0 l/m2 in 30 Min -
Fr, 12.04. 10:00 0.0 l/m2 in 1 Std. -
Fr, 12.04. 9:30 0.0 l/m2 in 30 Min -
Ortszeit Stärke Spitze Richtung
km/h Bft. km/h Grad Sektor
Fr, 12.04. 8:00 7 2 18 230° SW
Fr, 12.04. 2:00 9 2 26 270° W
Do, 11.04. 20:00 9 2 30 230° SW
Do, 11.04. 14:00 20 4 41 240° SW
Do, 11.04. 8:00 19 3 28 200° S
Do, 11.04. 2:00 18 3 22 220° SW
Mi, 10.04. 20:00 9 2 41 250° W
Mi, 10.04. 14:00 24 4 48 270° W
Ortszeit Stärke Spitze Richtung
km/h Bft. km/h Grad Sektor
Fr, 12.04. 12:30 14 3 25 240° SW
Fr, 12.04. 12:20 14 3 - 240° SW
Fr, 12.04. 12:10 13 3 - 240° SW
Fr, 12.04. 12:00 14 3 29 240° SW
Fr, 12.04. 11:50 14 3 - 240° SW
Fr, 12.04. 11:40 17 3 - 240° SW
Fr, 12.04. 11:30 15 3 22 230° SW
Fr, 12.04. 11:00 15 3 22 230° SW
Fr, 12.04. 10:30 11 2 22 220° SW
Fr, 12.04. 10:00 11 2 22 230° SW
Fr, 12.04. 9:30 9 2 17 250° W
Ortszeit Untergrenze Bedeckung Gattung
total tief tief mittel hoch
Fr, 12.04. 8:00 780 m 8/8 8/8 - - -
Fr, 12.04. 2:00 870 m 8/8 8/8 - - -
Do, 11.04. 20:00 1500 m 3/8 3/8 - - -
Do, 11.04. 14:00 1500 m 8/8 8/8 - - -
Do, 11.04. 8:00 9000 m 5/8 0/8 - - -
Do, 11.04. 2:00 - 0/8 0/8 - - -
Mi, 10.04. 20:00 1800 m 8/8 8/8 - - -
Mi, 10.04. 14:00 1230 m 7/8 7/8 - - -
Ortszeit Bedeckungsgrad in Achtel und Wolkenuntergrenze
Fr, 12.04. 12:30 8(840m)
Fr, 12.04. 12:20 8(840m)
Fr, 12.04. 12:10 8
Fr, 12.04. 12:00 8(900m)
Fr, 12.04. 11:50 8(900m)
Fr, 12.04. 11:40 8
Fr, 12.04. 11:30 8(900m)
Fr, 12.04. 11:00 8(900m)
Fr, 12.04. 10:30 8(900m)
Fr, 12.04. 10:00 8(900m)
Fr, 12.04. 9:30 2(720m) 8(900m)
Ortszeit Luftdruck NN (hPa) Tendenz (hPa in 3 Std.)
Fr, 12.04. 8:00 1031 - 0,4
Fr, 12.04. 2:00 1032 + 0,4
Do, 11.04. 20:00 1031 0,0
Do, 11.04. 14:00 1032 + 0,2
Do, 11.04. 8:00 1032 + 0,1
Do, 11.04. 2:00 1032 + 0,5
Mi, 10.04. 20:00 1030 + 1,2
Mi, 10.04. 14:00 1027 + 1,8
Ortszeit Luftdruck NN (hPa) Tendenz (hPa in 3 Std.)
Fr, 12.04. 12:30 1031 - 0,7
Fr, 12.04. 12:20 1031 keine Meldung
Fr, 12.04. 12:10 1030 keine Meldung
Fr, 12.04. 12:00 1031 - 0,5
Fr, 12.04. 11:50 1031 keine Meldung
Fr, 12.04. 11:40 1031 keine Meldung
Fr, 12.04. 11:30 1031 - 0,3
Fr, 12.04. 11:00 1031 - 0,2
Fr, 12.04. 10:30 1031 0,0
Fr, 12.04. 10:00 1031 - 0,2
Fr, 12.04. 9:30 1031 - 0,2
Ortszeit Schneehöhe (cm)
Fr, 12.04. 8:00 0
Fr, 12.04. 2:00 0
Do, 11.04. 20:00 0
Do, 11.04. 14:00 0
Do, 11.04. 8:00 0
Do, 11.04. 2:00 0
Mi, 10.04. 20:00 0
Mi, 10.04. 14:00 0
Ortszeit Schneehöhe (cm)
Fr, 12.04. 12:30 0
Fr, 12.04. 12:20 0
Fr, 12.04. 12:10 -
Fr, 12.04. 12:00 0
Fr, 12.04. 11:50 0
Fr, 12.04. 11:40 -
Fr, 12.04. 11:30 0
Fr, 12.04. 11:00 0
Fr, 12.04. 10:30 0
Fr, 12.04. 10:00 0
Fr, 12.04. 9:30 0
Link zu dieser Seite / Seite empfehlen

Das Wetter in ...